createdAt,value
2018-04-18T00:01:01.653Z,13.62
2018-04-18T00:03:29.967Z,13.58
2018-04-18T00:05:58.300Z,13.50
2018-04-18T00:08:26.618Z,13.40
2018-04-18T00:10:54.987Z,13.32
2018-04-18T00:13:23.306Z,13.28
2018-04-18T00:15:52.392Z,13.17
2018-04-18T00:18:20.728Z,13.06
2018-04-18T00:20:49.114Z,12.96
2018-04-18T00:23:17.463Z,12.86
2018-04-18T00:25:45.823Z,12.73
2018-04-18T00:28:14.160Z,12.63
2018-04-18T00:30:42.466Z,12.52
2018-04-18T00:33:10.778Z,12.42
2018-04-18T00:35:39.910Z,12.47
2018-04-18T00:38:08.252Z,12.46
2018-04-18T00:40:37.338Z,12.42
2018-04-18T00:43:05.656Z,12.39
2018-04-18T00:45:33.998Z,12.35
2018-04-18T00:48:02.335Z,12.30
2018-04-18T00:50:30.656Z,12.24
2018-04-18T00:52:58.971Z,12.19
2018-04-18T00:55:28.073Z,12.13
2018-04-18T00:57:57.159Z,12.08
2018-04-18T01:00:25.486Z,12.00
2018-04-18T01:02:53.825Z,11.93
2018-04-18T01:05:22.888Z,11.89
2018-04-18T01:07:51.307Z,11.86
2018-04-18T01:10:19.655Z,11.84
2018-04-18T01:12:48.567Z,11.88
2018-04-18T01:15:16.913Z,11.92
2018-04-18T01:17:45.245Z,11.92
2018-04-18T01:20:13.567Z,11.87
2018-04-18T01:22:41.901Z,11.82
2018-04-18T01:25:10.247Z,11.82
2018-04-18T01:27:38.555Z,11.85
2018-04-18T01:30:07.110Z,11.84
2018-04-18T01:32:35.431Z,11.80
2018-04-18T01:35:03.774Z,11.78
2018-04-18T01:37:32.105Z,11.72
2018-04-18T01:40:01.232Z,11.67
2018-04-18T01:42:29.566Z,11.64
2018-04-18T01:44:57.890Z,11.67
2018-04-18T01:47:26.216Z,11.66
2018-04-18T01:49:54.541Z,11.65
2018-04-18T01:52:23.620Z,11.68
2018-04-18T01:54:51.946Z,11.66
2018-04-18T01:57:20.253Z,11.62
2018-04-18T01:59:48.603Z,11.55
2018-04-18T02:02:16.918Z,11.49
2018-04-18T02:04:45.274Z,11.40
2018-04-18T02:07:13.612Z,11.37
2018-04-18T02:09:42.605Z,11.36
2018-04-18T02:12:10.927Z,11.45
2018-04-18T02:14:39.242Z,11.52
2018-04-18T02:17:07.633Z,11.57
2018-04-18T02:19:36.043Z,11.53
2018-04-18T02:22:04.365Z,11.47
2018-04-18T02:24:32.698Z,11.40
2018-04-18T02:27:01.016Z,11.34
2018-04-18T02:29:29.312Z,11.31
2018-04-18T02:31:57.641Z,11.26
2018-04-18T02:34:25.978Z,11.19
2018-04-18T02:36:54.371Z,11.15
2018-04-18T02:39:22.713Z,11.14
2018-04-18T02:41:51.799Z,11.12
2018-04-18T02:44:20.117Z,11.07
2018-04-18T02:46:48.436Z,11.04
2018-04-18T02:49:16.752Z,10.99
2018-04-18T02:51:45.846Z,10.96
2018-04-18T02:54:14.936Z,10.94
2018-04-18T02:56:43.284Z,11.00
2018-04-18T02:59:11.602Z,11.09
2018-04-18T03:01:39.998Z,11.10
2018-04-18T03:04:09.072Z,11.04
2018-04-18T03:06:37.395Z,10.99
2018-04-18T03:09:05.726Z,10.96
2018-04-18T03:11:34.019Z,10.95
2018-04-18T03:14:02.357Z,10.91
2018-04-18T03:16:30.675Z,10.99
2018-04-18T03:18:58.996Z,11.03
2018-04-18T03:21:27.345Z,11.02
2018-04-18T03:23:55.672Z,11.00
2018-04-18T03:26:23.984Z,10.98
2018-04-18T03:28:52.306Z,11.02
2018-04-18T03:31:21.377Z,10.99
2018-04-18T03:33:49.719Z,10.98
2018-04-18T03:36:18.015Z,10.93
2018-04-18T03:38:46.338Z,10.88
2018-04-18T03:41:14.677Z,10.84
2018-04-18T03:43:42.994Z,10.86
2018-04-18T03:46:11.303Z,10.88
2018-04-18T03:48:40.419Z,10.83
2018-04-18T03:51:08.747Z,10.77
2018-04-18T03:53:37.091Z,10.70
2018-04-18T03:56:05.422Z,10.74
2018-04-18T03:58:34.523Z,10.79
2018-04-18T04:01:02.869Z,10.84
2018-04-18T04:03:31.317Z,10.92
2018-04-18T04:06:00.379Z,10.90
2018-04-18T04:08:28.710Z,10.86
2018-04-18T04:10:57.026Z,10.85
2018-04-18T04:13:25.335Z,10.84
2018-04-18T04:15:53.669Z,10.87
2018-04-18T04:18:39.744Z,10.89
2018-04-18T04:21:25.955Z,10.88
2018-04-18T04:24:11.943Z,10.78
2018-04-18T04:26:40.257Z,10.70
2018-04-18T04:29:08.571Z,10.65
2018-04-18T04:31:37.021Z,10.62
2018-04-18T04:34:06.031Z,10.60
2018-04-18T04:36:35.123Z,10.66
2018-04-18T04:39:04.196Z,10.73
2018-04-18T04:41:32.522Z,10.79
2018-04-18T04:44:01.622Z,10.82
2018-04-18T04:46:29.980Z,10.89
2018-04-18T04:48:58.290Z,10.91
2018-04-18T04:51:26.608Z,10.95
2018-04-18T04:53:54.926Z,11.01
2018-04-18T04:56:23.270Z,11.06
2018-04-18T04:58:51.616Z,11.11
2018-04-18T05:01:19.940Z,11.18
2018-04-18T05:03:48.918Z,11.23
2018-04-18T05:06:17.236Z,11.28
2018-04-18T05:08:45.566Z,11.32
2018-04-18T05:11:17.030Z,11.39
2018-04-18T05:13:45.807Z,11.44
2018-04-18T05:16:14.307Z,11.53
2018-04-18T05:18:42.744Z,11.57
2018-04-18T05:21:11.130Z,11.63
2018-04-18T05:23:40.239Z,11.73
2018-04-18T05:26:09.634Z,11.84
2018-04-18T05:28:38.738Z,11.91
2018-04-18T05:31:07.864Z,12.03
2018-04-18T05:33:37.084Z,12.12
2018-04-18T05:36:05.398Z,12.19
2018-04-18T05:38:33.801Z,12.26
2018-04-18T05:41:02.225Z,12.35
2018-04-18T05:43:31.671Z,12.43
2018-04-18T05:46:00.777Z,12.54
2018-04-18T05:48:29.110Z,12.68
2018-04-18T05:50:57.443Z,12.78
2018-04-18T05:53:25.746Z,12.88
2018-04-18T05:55:54.843Z,12.98
2018-04-18T05:58:23.915Z,13.05
2018-04-18T06:00:52.246Z,13.13
2018-04-18T06:03:20.572Z,13.21
2018-04-18T06:05:48.956Z,13.33
2018-04-18T06:08:17.309Z,13.44
2018-04-18T06:10:45.620Z,13.58
2018-04-18T06:13:13.991Z,13.69
2018-04-18T06:15:42.383Z,13.75
2018-04-18T06:18:10.709Z,13.88
2018-04-18T06:20:39.823Z,13.96
2018-04-18T06:23:08.123Z,14.03
2018-04-18T06:25:36.459Z,14.10
2018-04-18T06:28:05.546Z,14.19
2018-04-18T06:30:33.922Z,14.27
2018-04-18T06:33:02.249Z,14.38
2018-04-18T06:35:30.588Z,14.52
2018-04-18T06:37:58.904Z,14.67
2018-04-18T06:40:27.231Z,14.82
2018-04-18T06:42:55.633Z,15.02
2018-04-18T06:45:23.970Z,15.17
2018-04-18T06:47:52.305Z,15.33
2018-04-18T06:50:20.657Z,15.52
2018-04-18T06:52:49.029Z,15.73
2018-04-18T06:55:17.341Z,15.92
2018-04-18T06:57:45.659Z,16.11
2018-04-18T07:00:13.983Z,16.28
2018-04-18T07:02:42.315Z,16.44
2018-04-18T07:05:11.417Z,16.59
2018-04-18T07:07:40.538Z,16.71
2018-04-18T07:10:08.854Z,16.80
2018-04-18T07:12:37.202Z,16.92
2018-04-18T07:15:05.537Z,17.04
2018-04-18T07:17:33.893Z,17.18
2018-04-18T07:20:02.226Z,17.29
2018-04-18T07:22:31.344Z,17.40
2018-04-18T07:24:59.690Z,17.49
2018-04-18T07:27:28.044Z,17.58
2018-04-18T07:29:56.358Z,17.70
2018-04-18T07:32:24.748Z,17.81
2018-04-18T07:34:53.800Z,17.91
2018-04-18T07:37:22.120Z,18.02
2018-04-18T07:39:50.499Z,18.11
2018-04-18T07:42:18.851Z,18.18
2018-04-18T07:44:47.495Z,18.24
2018-04-18T07:47:16.568Z,18.30
2018-04-18T07:49:44.886Z,18.38
2018-04-18T07:52:13.195Z,18.44
2018-04-18T07:54:41.528Z,18.51
2018-04-18T07:57:10.597Z,18.57
2018-04-18T07:59:41.267Z,18.65
2018-04-18T08:02:10.366Z,18.79
2018-04-18T08:04:39.484Z,18.88
2018-04-18T08:07:07.810Z,18.97
2018-04-18T08:09:36.892Z,19.10
2018-04-18T08:12:05.222Z,19.22
2018-04-18T08:14:33.523Z,19.36
2018-04-18T08:17:01.946Z,19.47
2018-04-18T08:19:30.271Z,19.59
2018-04-18T08:21:59.386Z,19.75
2018-04-18T08:24:27.800Z,19.93
2018-04-18T08:26:56.152Z,20.11
2018-04-18T08:29:24.457Z,20.26
2018-04-18T08:31:52.790Z,20.43
2018-04-18T08:34:21.166Z,20.55
2018-04-18T08:36:49.485Z,20.67
2018-04-18T08:39:17.804Z,20.79
2018-04-18T08:41:46.166Z,20.91
2018-04-18T08:44:14.554Z,21.02
2018-04-18T08:46:42.977Z,21.15
2018-04-18T08:49:11.590Z,21.28
2018-04-18T08:51:40.709Z,21.44
2018-04-18T08:54:09.262Z,21.56
2018-04-18T08:56:37.571Z,21.66
2018-04-18T08:59:05.899Z,21.75
2018-04-18T09:01:34.229Z,21.87
2018-04-18T09:04:03.326Z,22.01
2018-04-18T09:06:31.729Z,22.15
2018-04-18T09:09:00.044Z,22.21
2018-04-18T09:11:28.373Z,22.29
2018-04-18T09:13:57.467Z,22.40
2018-04-18T09:16:26.561Z,22.46
2018-04-18T09:18:55.648Z,22.51
2018-04-18T09:21:25.412Z,22.55
2018-04-18T09:23:53.730Z,22.63
2018-04-18T09:26:22.068Z,22.75
2018-04-18T09:28:50.408Z,22.80
2018-04-18T09:31:18.726Z,22.85
2018-04-18T09:33:47.044Z,22.91
2018-04-18T09:36:15.369Z,22.97
2018-04-18T09:38:44.519Z,23.07
2018-04-18T09:41:12.860Z,23.18
2018-04-18T09:43:41.200Z,23.32
2018-04-18T09:46:10.284Z,23.43
2018-04-18T09:48:38.622Z,23.51
2018-04-18T09:51:07.691Z,23.65
2018-04-18T09:53:36.013Z,23.78
2018-04-18T09:56:04.331Z,23.91
2018-04-18T09:58:32.685Z,24.00
2018-04-18T10:01:01.753Z,24.15
2018-04-18T10:03:30.822Z,24.28
2018-04-18T10:05:59.128Z,24.38
2018-04-18T10:08:27.506Z,24.48
2018-04-18T10:10:55.856Z,24.60
2018-04-18T10:13:25.001Z,24.67
2018-04-18T10:15:54.092Z,24.72
2018-04-18T10:18:22.400Z,24.79
2018-04-18T10:20:50.794Z,24.90
2018-04-18T10:23:19.103Z,24.98
2018-04-18T10:25:47.438Z,25.08
2018-04-18T10:28:15.771Z,25.22
2018-04-18T10:30:44.098Z,25.36
2018-04-18T10:33:13.192Z,25.45
2018-04-18T10:35:42.259Z,25.53
2018-04-18T10:38:10.620Z,25.65
2018-04-18T10:40:38.893Z,25.77
2018-04-18T10:43:07.205Z,25.89
2018-04-18T10:45:35.513Z,26.02
2018-04-18T10:48:04.586Z,26.11
2018-04-18T10:50:32.926Z,26.21
2018-04-18T10:53:01.254Z,26.31
2018-04-18T10:55:29.568Z,26.50
2018-04-18T10:57:58.640Z,26.76
2018-04-18T11:00:26.939Z,27.01
2018-04-18T11:02:56.037Z,27.34
2018-04-18T11:05:25.104Z,27.59
2018-04-18T11:07:53.505Z,27.90
2018-04-18T11:10:21.804Z,28.21
2018-04-18T11:12:50.886Z,28.48
2018-04-18T11:15:19.980Z,28.76
2018-04-18T11:17:48.284Z,29.07
2018-04-18T11:20:17.392Z,29.39
2018-04-18T11:22:45.711Z,29.76
2018-04-18T11:25:14.140Z,30.10
2018-04-18T11:27:45.490Z,30.43
2018-04-18T11:30:13.890Z,30.80
2018-04-18T11:32:43.127Z,31.10
2018-04-18T11:35:13.310Z,31.36
2018-04-18T11:37:41.783Z,31.78
2018-04-18T11:40:10.123Z,32.17
2018-04-18T11:42:38.434Z,32.62
2018-04-18T11:45:06.755Z,33.08
2018-04-18T11:47:35.103Z,33.55
2018-04-18T11:50:03.429Z,34.14
2018-04-18T11:52:31.751Z,34.68
2018-04-18T11:55:00.073Z,35.23
2018-04-18T11:57:29.210Z,35.99
2018-04-18T11:59:58.300Z,36.70
2018-04-18T12:02:26.745Z,37.55
2018-04-18T12:04:55.063Z,38.48
2018-04-18T12:07:23.421Z,39.38
2018-04-18T12:09:52.487Z,40.23
2018-04-18T12:12:20.834Z,41.01
2018-04-18T12:14:49.170Z,41.69
2018-04-18T12:17:18.251Z,42.41
2018-04-18T12:19:47.319Z,43.13
2018-04-18T12:22:15.657Z,43.82
2018-04-18T12:24:44.764Z,44.46
2018-04-18T12:27:14.482Z,44.94
2018-04-18T12:29:42.860Z,45.57
2018-04-18T12:32:11.967Z,45.99
2018-04-18T12:34:40.283Z,46.59
2018-04-18T12:37:08.586Z,46.99
2018-04-18T12:39:36.908Z,47.36
2018-04-18T12:42:05.996Z,48.06
2018-04-18T12:44:35.092Z,48.62
2018-04-18T12:47:04.194Z,48.89
2018-04-18T12:49:33.256Z,49.21
2018-04-18T12:52:02.456Z,49.47
2018-04-18T12:54:30.775Z,49.85
2018-04-18T12:56:59.843Z,50.22
2018-04-18T12:59:28.177Z,50.68
2018-04-18T13:01:56.493Z,51.20
2018-04-18T13:04:24.828Z,51.69
2018-04-18T13:06:53.928Z,52.07
2018-04-18T13:09:23.016Z,52.39
2018-04-18T13:11:52.149Z,52.78
2018-04-18T13:14:20.488Z,52.94
2018-04-18T13:16:48.859Z,52.92
2018-04-18T13:19:17.175Z,52.91
2018-04-18T13:21:45.729Z,53.17
2018-04-18T13:24:14.051Z,53.64
2018-04-18T13:26:42.391Z,53.91
2018-04-18T13:29:10.830Z,54.13
2018-04-18T13:31:39.226Z,53.95
2018-04-18T13:34:07.531Z,53.95
2018-04-18T13:36:35.847Z,54.29
2018-04-18T13:39:04.924Z,54.69
2018-04-18T13:41:33.331Z,54.68
2018-04-18T13:44:02.436Z,54.61
2018-04-18T13:46:31.548Z,54.68
2018-04-18T13:48:59.877Z,54.63
2018-04-18T13:51:28.979Z,55.03
2018-04-18T13:53:57.288Z,55.39
2018-04-18T13:56:26.389Z,55.59
2018-04-18T13:58:54.814Z,55.81
2018-04-18T14:01:23.252Z,56.13
2018-04-18T14:03:51.564Z,56.22
2018-04-18T14:06:19.889Z,55.96
2018-04-18T14:08:48.216Z,55.71
2018-04-18T14:11:16.528Z,55.66
2018-04-18T14:13:44.871Z,55.49
2018-04-18T14:16:13.966Z,55.66
2018-04-18T14:18:43.040Z,55.92
2018-04-18T14:21:11.381Z,55.96
2018-04-18T14:23:39.711Z,55.82
2018-04-18T14:26:08.044Z,55.66
2018-04-18T14:28:36.403Z,55.96
2018-04-18T14:31:05.560Z,55.72
2018-04-18T14:33:33.893Z,55.53
2018-04-18T14:36:02.244Z,55.73
2018-04-18T14:38:30.627Z,55.93
2018-04-18T14:40:58.942Z,55.65
2018-04-18T14:43:27.264Z,54.44
2018-04-18T14:45:55.586Z,54.65
2018-04-18T14:48:23.892Z,54.81
2018-04-18T14:50:52.673Z,54.63
2018-04-18T14:53:21.757Z,54.54
2018-04-18T14:55:50.843Z,54.27
2018-04-18T14:58:19.168Z,54.21
2018-04-18T15:00:47.475Z,54.15
2018-04-18T15:03:15.944Z,53.75
2018-04-18T15:05:44.278Z,53.80
2018-04-18T15:08:12.638Z,53.82
2018-04-18T15:10:41.003Z,54.21
2018-04-18T15:13:09.320Z,54.43
2018-04-18T15:15:37.808Z,54.26
2018-04-18T15:18:06.154Z,54.10
2018-04-18T15:20:34.456Z,53.96
2018-04-18T15:23:02.777Z,54.07
2018-04-18T15:25:32.027Z,53.76
2018-04-18T15:28:00.336Z,53.65
2018-04-18T15:30:28.749Z,53.45
2018-04-18T15:32:57.830Z,53.40
2018-04-18T15:35:26.171Z,53.38
2018-04-18T15:37:54.542Z,52.86
2018-04-18T15:40:22.839Z,52.38
2018-04-18T15:42:51.206Z,51.87
2018-04-18T15:45:19.532Z,51.24
2018-04-18T15:47:47.847Z,50.64
2018-04-18T15:50:16.932Z,50.33
2018-04-18T15:52:46.028Z,49.97
2018-04-18T15:55:15.109Z,48.83
2018-04-18T15:57:43.546Z,46.77
2018-04-18T16:00:11.921Z,46.98
2018-04-18T16:02:40.262Z,46.81
2018-04-18T16:05:08.598Z,46.91
2018-04-18T16:07:36.980Z,47.13
2018-04-18T16:10:05.254Z,47.25
2018-04-18T16:12:33.629Z,47.02
2018-04-18T16:15:01.964Z,46.96
2018-04-18T16:17:30.293Z,46.54
2018-04-18T16:19:58.813Z,46.30
2018-04-18T16:22:27.158Z,46.03
2018-04-18T16:24:56.165Z,45.90
2018-04-18T16:27:24.657Z,45.75
2018-04-18T16:29:52.993Z,45.86
2018-04-18T16:32:21.319Z,45.86
2018-04-18T16:34:49.660Z,45.75
2018-04-18T16:37:18.024Z,45.46
2018-04-18T16:39:46.389Z,45.16
2018-04-18T16:42:14.741Z,44.86
2018-04-18T16:44:43.082Z,44.46
2018-04-18T16:47:11.405Z,44.02
2018-04-18T16:49:39.743Z,43.61
2018-04-18T16:52:08.081Z,43.27
2018-04-18T16:54:36.440Z,42.92
2018-04-18T16:57:05.554Z,42.58
2018-04-18T16:59:34.632Z,42.10
2018-04-18T17:02:03.739Z,41.58
2018-04-18T17:04:32.858Z,41.29
2018-04-18T17:07:01.194Z,40.77
2018-04-18T17:09:29.525Z,40.38
2018-04-18T17:11:57.836Z,39.98
2018-04-18T17:14:26.147Z,39.60
2018-04-18T17:16:54.473Z,39.16
2018-04-18T17:19:22.820Z,38.87
2018-04-18T17:21:51.931Z,38.55
2018-04-18T17:24:21.011Z,38.29
2018-04-18T17:26:53.972Z,37.92
2018-04-18T17:29:22.581Z,37.44
2018-04-18T17:31:50.915Z,36.93
2018-04-18T17:34:19.273Z,36.47
2018-04-18T17:36:48.971Z,35.98
2018-04-18T17:39:18.118Z,35.36
2018-04-18T17:41:46.457Z,34.76
2018-04-18T17:44:15.553Z,34.02
2018-04-18T17:46:44.682Z,33.16
2018-04-18T17:49:13.045Z,32.29
2018-04-18T17:51:42.113Z,31.47
2018-04-18T17:54:10.439Z,30.64
2018-04-18T17:56:39.430Z,29.94
2018-04-18T17:59:07.761Z,29.29
2018-04-18T18:01:36.102Z,28.71
2018-04-18T18:04:04.474Z,28.17
2018-04-18T18:06:33.569Z,27.66
2018-04-18T18:09:02.650Z,27.16
2018-04-18T18:11:31.133Z,26.69
2018-04-18T18:13:59.442Z,26.26
2018-04-18T18:16:28.522Z,25.85
2018-04-18T18:18:57.668Z,25.45
2018-04-18T18:21:26.014Z,25.10
2018-04-18T18:23:55.138Z,24.74
2018-04-18T18:26:23.465Z,24.39
2018-04-18T18:28:52.592Z,24.09
2018-04-18T18:31:21.047Z,23.80
2018-04-18T18:33:49.372Z,23.53
2018-04-18T18:36:18.466Z,23.25
2018-04-18T18:38:47.571Z,23.01
2018-04-18T18:41:15.889Z,22.75
2018-04-18T18:43:44.220Z,22.49
2018-04-18T18:46:12.549Z,22.22
2018-04-18T18:48:40.908Z,22.01
2018-04-18T18:51:09.221Z,21.81
2018-04-18T18:53:37.539Z,21.60
2018-04-18T18:56:05.849Z,21.44
2018-04-18T18:58:34.168Z,21.25
2018-04-18T19:01:02.485Z,21.08
2018-04-18T19:03:30.859Z,20.93
2018-04-18T19:05:59.230Z,20.76
2018-04-18T19:08:27.545Z,20.61
2018-04-18T19:10:56.625Z,20.43
2018-04-18T19:13:24.961Z,20.32
2018-04-18T19:15:53.307Z,20.20
2018-04-18T19:18:23.345Z,20.04
2018-04-18T19:20:53.777Z,19.94
2018-04-18T19:23:22.180Z,19.84
2018-04-18T19:25:51.397Z,19.71
2018-04-18T19:28:19.796Z,19.60
2018-04-18T19:30:48.129Z,19.50
2018-04-18T19:33:17.048Z,19.46
2018-04-18T19:35:45.407Z,19.43
2018-04-18T19:38:13.770Z,19.36
2018-04-18T19:40:42.921Z,19.36
2018-04-18T19:43:11.321Z,19.31
2018-04-18T19:45:39.670Z,19.25
2018-04-18T19:48:07.995Z,19.23
2018-04-18T19:50:36.468Z,19.21
2018-04-18T19:53:05.563Z,19.15
2018-04-18T19:55:33.884Z,19.17
2018-04-18T19:58:03.023Z,19.23
2018-04-18T20:00:31.374Z,19.22
2018-04-18T20:03:01.170Z,19.20
2018-04-18T20:05:29.494Z,19.16
2018-04-18T20:07:57.810Z,19.13
2018-04-18T20:10:26.412Z,19.12
2018-04-18T20:12:54.760Z,19.06
2018-04-18T20:15:23.088Z,18.95
2018-04-18T20:17:52.190Z,18.78
2018-04-18T20:20:20.511Z,18.65
2018-04-18T20:22:48.828Z,18.56
2018-04-18T20:25:17.160Z,18.49
2018-04-18T20:27:46.240Z,18.43
2018-04-18T20:30:14.557Z,18.42
2018-04-18T20:32:42.954Z,18.35
2018-04-18T20:35:11.524Z,18.30
2018-04-18T20:37:40.003Z,18.21
2018-04-18T20:40:08.330Z,18.07
2018-04-18T20:42:36.630Z,17.91
2018-04-18T20:45:04.949Z,17.78
2018-04-18T20:47:33.262Z,17.63
2018-04-18T20:50:01.598Z,17.48
2018-04-18T20:52:30.695Z,17.38
2018-04-18T20:54:59.797Z,17.29
2018-04-18T20:57:28.921Z,17.19
2018-04-18T20:59:57.262Z,17.11
2018-04-18T21:02:25.579Z,17.06
2018-04-18T21:04:53.923Z,17.05
2018-04-18T21:07:22.737Z,17.13
2018-04-18T21:09:51.967Z,17.13
2018-04-18T21:12:21.329Z,17.16
2018-04-18T21:14:49.807Z,17.17
2018-04-18T21:17:18.145Z,17.17
2018-04-18T21:19:46.471Z,17.13
2018-04-18T21:22:14.810Z,17.14
2018-04-18T21:24:43.139Z,17.08
2018-04-18T21:27:11.493Z,17.02
2018-04-18T21:29:39.851Z,16.94
2018-04-18T21:32:08.171Z,16.86
2018-04-18T21:34:36.793Z,16.76
2018-04-18T21:37:05.890Z,16.68
2018-04-18T21:39:35.003Z,16.58
2018-04-18T21:42:03.354Z,16.49
2018-04-18T21:44:31.682Z,16.42
2018-04-18T21:47:00.015Z,16.38
2018-04-18T21:49:28.340Z,16.34
2018-04-18T21:51:56.827Z,16.35
2018-04-18T21:54:25.168Z,16.34
2018-04-18T21:56:54.979Z,16.38
2018-04-18T21:59:24.232Z,16.42
2018-04-18T22:01:52.544Z,16.44
2018-04-18T22:04:20.878Z,16.50
2018-04-18T22:06:49.230Z,16.55
2018-04-18T22:09:17.590Z,16.58
2018-04-18T22:11:45.914Z,16.59
2018-04-18T22:14:15.265Z,16.60
2018-04-18T22:16:43.590Z,16.61
2018-04-18T22:19:11.918Z,16.65
2018-04-18T22:21:40.247Z,16.66
2018-04-18T22:24:08.601Z,16.75
2018-04-18T22:26:36.961Z,16.81
2018-04-18T22:29:05.292Z,16.84
2018-04-18T22:31:33.604Z,16.86
2018-04-18T22:34:01.938Z,16.84
2018-04-18T22:36:30.265Z,16.84
2018-04-18T22:38:58.640Z,16.88
2018-04-18T22:41:27.735Z,16.88
2018-04-18T22:43:56.830Z,16.90
2018-04-18T22:46:25.916Z,16.90
2018-04-18T22:48:54.270Z,16.89
2018-04-18T22:51:22.649Z,16.85
2018-04-18T22:53:51.001Z,16.76
2018-04-18T22:56:19.319Z,16.69
2018-04-18T22:58:47.637Z,16.67
2018-04-18T23:01:16.753Z,16.65
2018-04-18T23:03:45.069Z,16.67
2018-04-18T23:06:13.376Z,16.67
2018-04-18T23:08:41.681Z,16.60
2018-04-18T23:11:09.992Z,16.57
2018-04-18T23:13:38.298Z,16.56
2018-04-18T23:16:06.621Z,16.58
2018-04-18T23:18:34.970Z,16.63
2018-04-18T23:21:03.302Z,16.67
2018-04-18T23:23:32.383Z,16.63
2018-04-18T23:26:00.704Z,16.62
2018-04-18T23:28:29.026Z,16.63
2018-04-18T23:30:58.086Z,16.66
2018-04-18T23:33:26.406Z,16.66
2018-04-18T23:35:54.705Z,16.63
2018-04-18T23:38:23.021Z,16.59
2018-04-18T23:40:51.637Z,16.62
2018-04-18T23:43:19.968Z,16.64
2018-04-18T23:45:49.049Z,16.62
2018-04-18T23:48:17.376Z,16.60
2018-04-18T23:50:45.687Z,16.60
2018-04-18T23:53:14.001Z,16.60
2018-04-18T23:55:42.321Z,16.60
2018-04-18T23:58:10.645Z,16.56
